createdAt,value
2023-03-19T00:02:52.372Z,100969.59
2023-03-19T00:07:55.055Z,100965.84
2023-03-19T00:12:56.614Z,100958.72
2023-03-19T00:17:58.093Z,100968.22
2023-03-19T00:22:59.730Z,100982.50
2023-03-19T00:28:01.585Z,100981.13
2023-03-19T00:33:03.144Z,100991.16
2023-03-19T00:38:06.735Z,100984.88
2023-03-19T00:43:08.363Z,100995.47
2023-03-19T00:48:09.929Z,100993.13
2023-03-19T00:53:11.480Z,100999.63
2023-03-19T00:58:14.290Z,100997.28
2023-03-19T01:03:15.807Z,100999.63
2023-03-19T01:08:18.621Z,100998.78
2023-03-19T01:13:20.459Z,100996.91
2023-03-19T01:18:22.153Z,101001.66
2023-03-19T01:23:23.716Z,100994.88
2023-03-19T01:28:25.324Z,100990.28
2023-03-19T01:33:26.865Z,100996.97
2023-03-19T01:38:28.830Z,100993.06
2023-03-19T01:43:31.509Z,101001.94
2023-03-19T01:48:41.852Z,100983.69
2023-03-19T01:53:47.636Z,100988.88
2023-03-19T01:58:53.197Z,100997.28
2023-03-19T02:03:55.768Z,100993.34
2023-03-19T02:08:58.742Z,100995.19
2023-03-19T02:14:00.216Z,100995.34
2023-03-19T02:19:01.737Z,101004.94
2023-03-19T02:24:17.425Z,100995.88
2023-03-19T02:29:18.900Z,101004.06
2023-03-19T02:34:20.351Z,101010.00
2023-03-19T02:39:36.437Z,101019.03
2023-03-19T02:44:38.014Z,101018.00
2023-03-19T02:49:39.535Z,101014.25
2023-03-19T02:54:41.254Z,101020.84
2023-03-19T02:59:42.762Z,101012.09
2023-03-19T03:04:44.333Z,101024.41
2023-03-19T03:09:45.996Z,101026.84
2023-03-19T03:14:47.479Z,101030.69
2023-03-19T03:19:49.005Z,101022.44
2023-03-19T03:24:50.488Z,101027.94
2023-03-19T03:29:52.155Z,101025.31
2023-03-19T03:34:53.634Z,101029.25
2023-03-19T03:39:55.229Z,101032.19
2023-03-19T03:44:56.752Z,101031.66
2023-03-19T03:49:58.268Z,101030.75
2023-03-19T03:55:00.884Z,101034.91
2023-03-19T04:00:02.436Z,101034.50
2023-03-19T04:05:04.123Z,101028.13
2023-03-19T04:10:05.914Z,101033.72
2023-03-19T04:15:10.963Z,101033.66
2023-03-19T04:20:13.607Z,101036.25
2023-03-19T04:25:15.348Z,101042.28
2023-03-19T04:30:16.943Z,101034.69
2023-03-19T04:35:18.414Z,101044.03
2023-03-19T04:40:19.981Z,101044.91
2023-03-19T04:45:21.532Z,101044.94
2023-03-19T04:50:23.512Z,101058.09
2023-03-19T04:55:25.000Z,101062.38
2023-03-19T05:00:26.576Z,101069.69
2023-03-19T05:05:28.152Z,101075.41
2023-03-19T05:10:29.691Z,101079.00
2023-03-19T05:15:31.537Z,101085.44
2023-03-19T05:20:33.303Z,101087.84
2023-03-19T05:25:37.974Z,101091.56
2023-03-19T05:30:40.607Z,101090.25
2023-03-19T05:35:42.253Z,101083.09
2023-03-19T05:40:43.850Z,101090.50
2023-03-19T05:45:51.067Z,101106.22
2023-03-19T05:50:52.857Z,101111.81
2023-03-19T05:55:54.386Z,101116.69
2023-03-19T06:00:58.959Z,101122.13
2023-03-19T06:06:01.260Z,101130.25
2023-03-19T06:11:02.779Z,101136.44
2023-03-19T06:16:04.527Z,101140.25
2023-03-19T06:21:06.382Z,101149.72
2023-03-19T06:26:07.914Z,101149.00
2023-03-19T06:31:09.520Z,101161.75
2023-03-19T06:36:11.482Z,101164.28
2023-03-19T06:41:13.109Z,101173.88
2023-03-19T06:46:14.701Z,101179.63
2023-03-19T06:51:16.303Z,101178.91
2023-03-19T06:56:17.774Z,101183.06
2023-03-19T07:01:19.267Z,101187.34
2023-03-19T07:06:20.903Z,101197.38
2023-03-19T07:11:22.436Z,101207.38
2023-03-19T07:16:23.958Z,101218.13
2023-03-19T07:21:25.636Z,101220.41
2023-03-19T07:26:27.700Z,101235.16
2023-03-19T07:31:29.290Z,101244.03
2023-03-19T07:36:31.247Z,101248.59
2023-03-19T07:41:32.753Z,101256.31
2023-03-19T07:46:34.293Z,101252.47
2023-03-19T07:51:36.758Z,101260.91
2023-03-19T07:56:38.391Z,101267.63
2023-03-19T08:01:39.951Z,101261.63
2023-03-19T08:06:41.448Z,101276.78
2023-03-19T08:11:42.995Z,101277.66
2023-03-19T08:16:44.604Z,101279.94
2023-03-19T08:21:46.642Z,101288.09
2023-03-19T08:26:48.335Z,101291.22
2023-03-19T08:31:49.847Z,101293.94
2023-03-19T08:36:51.360Z,101291.53
2023-03-19T08:41:52.859Z,101300.13
2023-03-19T08:46:54.320Z,101306.00
2023-03-19T08:51:55.841Z,101300.66
2023-03-19T08:56:57.368Z,101311.00
2023-03-19T09:01:58.913Z,101321.00
2023-03-19T09:07:01.384Z,101321.13
2023-03-19T09:12:03.012Z,101331.00
2023-03-19T09:17:05.132Z,101337.31
2023-03-19T09:22:06.653Z,101345.34
2023-03-19T09:27:08.339Z,101344.47
2023-03-19T09:32:09.996Z,101349.16
2023-03-19T09:37:11.788Z,101348.03
2023-03-19T09:42:37.137Z,101360.19
2023-03-19T09:47:39.592Z,101375.44
2023-03-19T09:52:49.610Z,101382.13
2023-03-19T09:57:53.501Z,101374.66
2023-03-19T10:03:30.818Z,101388.13
2023-03-19T10:09:09.877Z,101391.72
2023-03-19T10:14:49.090Z,101394.94
2023-03-19T10:19:55.697Z,101391.44
2023-03-19T10:24:58.328Z,101399.34
2023-03-19T10:30:00.003Z,101395.88
2023-03-19T10:35:07.544Z,101399.13
2023-03-19T10:40:21.480Z,101398.13
2023-03-19T10:45:25.866Z,101411.31
2023-03-19T10:50:36.119Z,101409.03
2023-03-19T10:55:37.940Z,101417.31
2023-03-19T11:00:41.608Z,101420.78
2023-03-19T11:05:43.155Z,101421.66
2023-03-19T11:10:48.375Z,101434.53
2023-03-19T11:15:50.372Z,101429.25
2023-03-19T11:21:02.051Z,101437.84
2023-03-19T11:26:03.922Z,101433.06
2023-03-19T11:31:19.168Z,101434.78
2023-03-19T11:36:20.675Z,101434.16
2023-03-19T11:41:43.559Z,101435.00
2023-03-19T11:47:03.004Z,101426.66
2023-03-19T11:52:10.219Z,101445.31
2023-03-19T11:57:28.751Z,101431.50
2023-03-19T12:02:38.758Z,101440.25
2023-03-19T12:08:04.982Z,101435.47
2023-03-19T12:13:31.518Z,101449.97
2023-03-19T12:18:52.692Z,101450.72
2023-03-19T12:24:12.427Z,101469.66
2023-03-19T12:29:23.439Z,101459.28
2023-03-19T12:34:38.352Z,101459.13
2023-03-19T12:39:46.904Z,101463.56
2023-03-19T12:44:56.816Z,101462.31
2023-03-19T12:50:08.364Z,101460.44
2023-03-19T12:55:19.927Z,101476.69
2023-03-19T13:00:40.179Z,101474.50
2023-03-19T13:05:45.800Z,101483.69
2023-03-19T13:10:47.276Z,101482.66
2023-03-19T13:15:52.672Z,101481.63
2023-03-19T13:20:56.814Z,101485.34
2023-03-19T13:26:01.292Z,101499.88
2023-03-19T13:31:06.068Z,101498.59
2023-03-19T13:36:14.605Z,101507.63
2023-03-19T13:41:35.474Z,101508.38
2023-03-19T13:46:41.550Z,101505.63
2023-03-19T13:51:47.682Z,101505.22
2023-03-19T13:57:15.895Z,101506.66
2023-03-19T14:02:22.278Z,101510.63
2023-03-19T14:07:29.904Z,101525.53
2023-03-19T14:12:36.197Z,101544.81
2023-03-19T14:17:42.151Z,101546.97
2023-03-19T14:23:02.650Z,101538.09
2023-03-19T14:28:10.879Z,101539.06
2023-03-19T14:33:23.777Z,101544.13
2023-03-19T14:38:36.831Z,101551.31
2023-03-19T14:43:51.111Z,101536.50
2023-03-19T14:49:28.320Z,101532.47
2023-03-19T14:54:35.919Z,101526.44
2023-03-19T14:59:39.210Z,101532.53
2023-03-19T15:04:46.737Z,101535.66
2023-03-19T15:09:54.386Z,101532.31
2023-03-19T15:15:06.129Z,101549.41
2023-03-19T15:20:21.265Z,101554.97
2023-03-19T15:25:23.262Z,101567.66
2023-03-19T15:30:28.789Z,101560.22
2023-03-19T15:35:34.916Z,101556.91
2023-03-19T15:40:38.010Z,101545.47
2023-03-19T15:45:44.855Z,101541.00
2023-03-19T15:50:49.757Z,101548.28
2023-03-19T15:55:54.008Z,101557.66
2023-03-19T16:00:56.078Z,101562.38
2023-03-19T16:06:03.366Z,101569.72
2023-03-19T16:11:23.263Z,101564.88
2023-03-19T16:16:27.742Z,101571.75
2023-03-19T16:21:36.346Z,101582.66
2023-03-19T16:26:41.351Z,101581.81
2023-03-19T16:31:46.071Z,101605.78
2023-03-19T16:36:48.449Z,101605.78
2023-03-19T16:42:25.061Z,101619.69
2023-03-19T16:47:26.546Z,101637.50
2023-03-19T16:52:28.082Z,101650.41
2023-03-19T16:57:29.804Z,101649.56
2023-03-19T17:02:31.311Z,101657.88
2023-03-19T17:07:32.984Z,101657.00
2023-03-19T17:12:34.818Z,101672.50
2023-03-19T17:17:36.358Z,101668.03
2023-03-19T17:22:38.008Z,101677.47
2023-03-19T17:27:39.784Z,101688.34
2023-03-19T17:32:45.862Z,101701.06
2023-03-19T17:37:48.423Z,101710.91
2023-03-19T17:42:50.862Z,101717.50
2023-03-19T17:47:56.438Z,101711.28
2023-03-19T17:52:58.567Z,101715.53
2023-03-19T17:58:00.210Z,101717.25
2023-03-19T18:03:01.768Z,101726.75
2023-03-19T18:08:03.314Z,101735.53
2023-03-19T18:13:07.293Z,101746.16
2023-03-19T18:18:16.101Z,101742.50
2023-03-19T18:23:18.110Z,101749.41
2023-03-19T18:28:19.565Z,101752.50
2023-03-19T18:33:27.517Z,101759.63
2023-03-19T18:38:29.359Z,101766.19
2023-03-19T18:43:30.909Z,101759.56
2023-03-19T18:48:32.845Z,101765.91
2023-03-19T18:53:34.529Z,101774.38
2023-03-19T18:58:38.780Z,101779.06
2023-03-19T19:03:40.433Z,101781.44
2023-03-19T19:08:41.924Z,101783.84
2023-03-19T19:13:55.700Z,101764.81
2023-03-19T19:18:58.017Z,101785.09
2023-03-19T19:23:59.576Z,101781.06
2023-03-19T19:29:01.504Z,101791.19
2023-03-19T19:34:03.078Z,101808.50
2023-03-19T19:39:04.577Z,101796.22
2023-03-19T19:44:06.269Z,101791.41
2023-03-19T19:49:13.189Z,101792.03
2023-03-19T19:54:14.630Z,101802.91
2023-03-19T19:59:16.183Z,101814.53
2023-03-19T20:04:17.759Z,101821.94
2023-03-19T20:09:19.313Z,101819.50
2023-03-19T20:14:21.027Z,101823.34
2023-03-19T20:19:22.761Z,101831.25
2023-03-19T20:24:24.220Z,101822.38
2023-03-19T20:29:25.974Z,101828.94
2023-03-19T20:34:38.696Z,101832.66
2023-03-19T20:39:40.980Z,101844.00
2023-03-19T20:44:44.030Z,101846.47
2023-03-19T20:49:45.735Z,101847.47
2023-03-19T20:54:48.240Z,101848.72
2023-03-19T20:59:49.807Z,101841.31
2023-03-19T21:04:51.730Z,101850.72
2023-03-19T21:09:53.260Z,101850.72
2023-03-19T21:14:55.466Z,101856.91
2023-03-19T21:19:57.176Z,101849.00
2023-03-19T21:25:07.951Z,101847.28
2023-03-19T21:30:14.039Z,101855.06
2023-03-19T21:35:17.781Z,101839.13
2023-03-19T21:40:29.200Z,101843.31
2023-03-19T21:45:33.914Z,101853.94
2023-03-19T21:50:35.686Z,101850.47
2023-03-19T21:55:37.336Z,101839.75
2023-03-19T22:00:39.289Z,101839.88
2023-03-19T22:05:41.153Z,101853.56
2023-03-19T22:10:42.888Z,101860.00
2023-03-19T22:15:44.661Z,101862.47
2023-03-19T22:20:48.363Z,101873.50
2023-03-19T22:25:51.384Z,101876.22
2023-03-19T22:30:53.008Z,101878.31
2023-03-19T22:35:54.937Z,101879.41
2023-03-19T22:40:56.995Z,101881.38
2023-03-19T22:46:11.040Z,101861.50
2023-03-19T22:51:17.814Z,101866.09
2023-03-19T22:56:21.383Z,101861.88
2023-03-19T23:01:23.589Z,101858.16
2023-03-19T23:06:30.677Z,101850.63
2023-03-19T23:11:32.493Z,101853.09
2023-03-19T23:16:33.976Z,101833.75
2023-03-19T23:21:35.501Z,101836.47
2023-03-19T23:26:37.357Z,101832.22
2023-03-19T23:31:38.840Z,101843.22
2023-03-19T23:36:40.500Z,101838.19
2023-03-19T23:41:48.388Z,101843.34
2023-03-19T23:46:51.552Z,101843.00
2023-03-19T23:51:53.041Z,101846.69
2023-03-19T23:56:56.222Z,101851.28
